Aviation Digital Data Service (ADDS)

Output produced by METARs form (0705 UTC 22 January 2021)
found at http://aviationweather.gov/metar/data/
 
METAR text: KRNT 220653Z AUTO 10SM SCT070 07/02 A3005 RMK AO2 SLP181 T00670022
Conditions at: KRNT (RENTON , WA, US) observed 0653 UTC 22 January 2021
Temperature: 6.7°C (44°F)
Dewpoint: 2.2°C (36°F) [RH = 73%]
Pressure (altimeter): 30.05 inches Hg (1017.7 mb)
[Sea-level pressure: 1018.1 mb]
Winds: missing
Visibility: 10 or more miles (16+ km)
Ceiling: at least 12,000 feet AGL
Clouds: scattered clouds at 7000 feet AGL
Weather: automated observation with no human augmentation;
there may or may not be significant weather present at this time

METAR text: KRNT 220553Z AUTO 35006KT 10SM OVC060 07/02 A3006 RMK AO2 SLP183 60000 T00670022 10083 20067 53003
Conditions at: KRNT (RENTON , WA, US) observed 0553 UTC 22 January 2021
Temperature: 6.7°C (44°F)
Dewpoint: 2.2°C (36°F) [RH = 73%]
Pressure (altimeter): 30.06 inches Hg (1018.0 mb)
[Sea-level pressure: 1018.3 mb]
Winds: from the N (350 degrees) at 7 MPH (6 knots; 3.1 m/s)
Visibility: 10 or more miles (16+ km)
Ceiling: 6000 feet AGL
Clouds: overcast cloud deck at 6000 feet AGL
Weather: automated observation with no human augmentation;
there may or may not be significant weather present at this time